METAR Data
IDs: Format: Raw Decoded Include TAF

Data at: 0309 UTC 25 Feb 2021

ETGG 250220Z AUTO 21013KT 9999 // ////// 12/05 Q1022 ///